FDX1153 KBOS-KJFK
Flight info
| Callsign | FDX1153 |
|---|---|
| Flight time | 1h 4m |
| Altitude | 22000 |
| Route | SSOXS7 SSOXS BUZRD SEY PARCH4 |
| Aircraft | B77L/H-SDE1E2E3FGHIJ2J3J4J5M1RWXY/LB1D1 |
Departure
| Time | 2026-05-05 01:18 |
|---|---|
| Airport | Boston Logan International Airport (KBOS) |
Arrival
| Time | 2026-05-05 02:22 |
|---|---|
| Airport | John F. Kennedy International Airport (KJFK) |
| Time | Latitude | Longitude | Altitude | Speed | Heading |
|---|---|---|---|---|---|
| 2026-05-05 00:11 | 42.37218 | -71.02235 | 27 ft | 0 kts | 309° |
| 2026-05-05 01:01 | 42.37213 | -71.02227 | 27 ft | 4 kts | 311° |
| 2026-05-05 01:01 | 42.37194 | -71.02203 | 27 ft | 4 kts | 328° |
| 2026-05-05 01:01 | 42.37170 | -71.02189 | 12 ft | 4 kts | 358° |
| 2026-05-05 01:02 | 42.37150 | -71.02195 | 26 ft | 1 kts | 39° |
| 2026-05-05 01:04 | 42.37153 | -71.02191 | 26 ft | 2 kts | 40° |
| 2026-05-05 01:04 | 42.37154 | -71.02190 | 26 ft | 0 kts | 40° |
| 2026-05-05 01:05 | 42.37155 | -71.02189 | 26 ft | 1 kts | 40° |
| 2026-05-05 01:05 | 42.37166 | -71.02175 | 8 ft | 0 kts | 41° |
| 2026-05-05 01:05 | 42.37174 | -71.02165 | 2 ft | 3 kts | 44° |
| 2026-05-05 01:06 | 42.37194 | -71.02132 | 40 ft | 5 kts | 56° |
| 2026-05-05 01:06 | 42.37210 | -71.02091 | 30 ft | 5 kts | 69° |
| 2026-05-05 01:06 | 42.37217 | -71.02059 | 31 ft | 0 kts | 75° |
| 2026-05-05 01:08 | 42.37219 | -71.02048 | 32 ft | 4 kts | 77° |
| 2026-05-05 01:08 | 42.37226 | -71.02011 | 33 ft | 4 kts | 75° |
| 2026-05-05 01:08 | 42.37235 | -71.01976 | 33 ft | 4 kts | 66° |
| 2026-05-05 01:09 | 42.37251 | -71.01942 | 33 ft | 5 kts | 53° |
| 2026-05-05 01:09 | 42.37275 | -71.01905 | 34 ft | 6 kts | 47° |
| 2026-05-05 01:09 | 42.37292 | -71.01848 | 34 ft | 7 kts | 89° |
| 2026-05-05 01:09 | 42.37266 | -71.01783 | 33 ft | 9 kts | 130° |
| 2026-05-05 01:10 | 42.37219 | -71.01718 | 33 ft | 11 kts | 136° |
| 2026-05-05 01:10 | 42.37166 | -71.01647 | 34 ft | 11 kts | 135° |
| 2026-05-05 01:10 | 42.37112 | -71.01574 | 34 ft | 12 kts | 135° |
| 2026-05-05 01:10 | 42.37048 | -71.01488 | 31 ft | 15 kts | 135° |
| 2026-05-05 01:11 | 42.36971 | -71.01386 | 30 ft | 16 kts | 135° |
| 2026-05-05 01:11 | 42.36925 | -71.01259 | 30 ft | 16 kts | 83° |
| 2026-05-05 01:11 | 42.36976 | -71.01122 | 29 ft | 17 kts | 36° |
| 2026-05-05 01:11 | 42.37087 | -71.01043 | 26 ft | 19 kts | 24° |
| 2026-05-05 01:12 | 42.37204 | -71.00967 | 27 ft | 19 kts | 26° |
| 2026-05-05 01:12 | 42.37323 | -71.00898 | 30 ft | 19 kts | 20° |
| 2026-05-05 01:12 | 42.37444 | -71.00836 | 27 ft | 19 kts | 21° |
| 2026-05-05 01:12 | 42.37565 | -71.00776 | 29 ft | 19 kts | 20° |
| 2026-05-05 01:13 | 42.37687 | -71.00717 | 31 ft | 19 kts | 19° |
| 2026-05-05 01:13 | 42.37807 | -71.00652 | 34 ft | 19 kts | 37° |
| 2026-05-05 01:13 | 42.37829 | -71.00614 | 33 ft | 0 kts | 64° |
| 2026-05-05 01:15 | 42.37831 | -71.00600 | 33 ft | 2 kts | 79° |
| 2026-05-05 01:15 | 42.37829 | -71.00572 | 32 ft | 4 kts | 98° |
| 2026-05-05 01:15 | 42.37819 | -71.00528 | 32 ft | 6 kts | 117° |
| 2026-05-05 01:16 | 42.37780 | -71.00494 | 30 ft | 7 kts | 168° |
| 2026-05-05 01:16 | 42.37730 | -71.00505 | 31 ft | 7 kts | 196° |
| 2026-05-05 01:16 | 42.37723 | -71.00508 | 31 ft | 0 kts | 198° |
| 2026-05-05 01:17 | 42.37585 | -71.00572 | 31 ft | 58 kts | 199° |
| 2026-05-05 01:17 | 42.36963 | -71.00872 | 27 ft | 129 kts | 200° |
| 2026-05-05 01:17 | 42.35951 | -71.01368 | 54 ft | 177 kts | 198° |
| 2026-05-05 01:18 | 42.34777 | -71.01906 | 576 ft | 183 kts | 195° |
| 2026-05-05 01:18 | 42.33551 | -71.01521 | 1222 ft | 188 kts | 146° |
| 2026-05-05 01:18 | 42.32740 | -71.00077 | 1897 ft | 200 kts | 134° |
| 2026-05-05 01:18 | 42.31884 | -70.98458 | 2234 ft | 220 kts | 134° |
| 2026-05-05 01:19 | 42.31167 | -70.96579 | 2761 ft | 238 kts | 104° |
| 2026-05-05 01:19 | 42.31273 | -70.94263 | 3064 ft | 264 kts | 79° |
| 2026-05-05 01:19 | 42.31672 | -70.91777 | 3645 ft | 274 kts | 79° |
| 2026-05-05 01:19 | 42.32060 | -70.89203 | 4315 ft | 284 kts | 79° |
| 2026-05-05 01:20 | 42.32450 | -70.86527 | 4968 ft | 294 kts | 78° |
| 2026-05-05 01:20 | 42.32839 | -70.83798 | 5841 ft | 295 kts | 78° |
| 2026-05-05 01:20 | 42.33170 | -70.81103 | 6676 ft | 293 kts | 88° |
| 2026-05-05 01:20 | 42.32812 | -70.78402 | 7507 ft | 287 kts | 115° |
| 2026-05-05 01:21 | 42.31984 | -70.76025 | 8386 ft | 281 kts | 117° |
| 2026-05-05 01:21 | 42.31156 | -70.73647 | 9264 ft | 278 kts | 116° |
| 2026-05-05 01:21 | 42.30346 | -70.71297 | 10138 ft | 273 kts | 116° |
| 2026-05-05 01:21 | 42.29426 | -70.69115 | 10902 ft | 262 kts | 137° |
| 2026-05-05 01:22 | 42.28002 | -70.67750 | 11712 ft | 243 kts | 163° |
| 2026-05-05 01:22 | 42.26443 | -70.66995 | 12440 ft | 240 kts | 167° |
| 2026-05-05 01:22 | 42.24803 | -70.66259 | 12826 ft | 254 kts | 167° |
| 2026-05-05 01:22 | 42.23103 | -70.65498 | 13439 ft | 261 kts | 167° |
| 2026-05-05 01:23 | 42.21344 | -70.64705 | 13950 ft | 272 kts | 167° |
| 2026-05-05 01:23 | 42.19452 | -70.63852 | 14042 ft | 303 kts | 166° |
| 2026-05-05 01:23 | 42.17345 | -70.62898 | 14110 ft | 335 kts | 166° |
| 2026-05-05 01:23 | 42.15062 | -70.61923 | 14082 ft | 359 kts | 172° |
| 2026-05-05 01:24 | 42.12515 | -70.61849 | 14082 ft | 375 kts | 196° |
| 2026-05-05 01:24 | 42.10013 | -70.62884 | 14079 ft | 377 kts | 202° |
| 2026-05-05 01:24 | 42.07520 | -70.64044 | 14086 ft | 380 kts | 202° |
| 2026-05-05 01:24 | 42.04999 | -70.65202 | 14759 ft | 385 kts | 202° |
| 2026-05-05 01:25 | 42.02448 | -70.66356 | 15672 ft | 387 kts | 202° |
| 2026-05-05 01:25 | 41.99877 | -70.67503 | 16529 ft | 391 kts | 202° |
| 2026-05-05 01:25 | 41.97272 | -70.68656 | 17309 ft | 397 kts | 202° |
| 2026-05-05 01:25 | 41.94613 | -70.69826 | 18001 ft | 405 kts | 202° |
| 2026-05-05 01:26 | 41.91915 | -70.71008 | 18694 ft | 410 kts | 202° |
| 2026-05-05 01:26 | 41.89186 | -70.72202 | 19399 ft | 415 kts | 202° |
| 2026-05-05 01:26 | 41.86427 | -70.73409 | 20074 ft | 419 kts | 202° |
| 2026-05-05 01:26 | 41.83640 | -70.74649 | 20729 ft | 423 kts | 205° |
| 2026-05-05 01:27 | 41.80994 | -70.76244 | 21283 ft | 424 kts | 212° |
| 2026-05-05 01:27 | 41.78412 | -70.78196 | 21874 ft | 428 kts | 215° |
| 2026-05-05 01:27 | 41.75837 | -70.80267 | 21948 ft | 433 kts | 215° |
| 2026-05-05 01:27 | 41.73250 | -70.82337 | 21957 ft | 433 kts | 214° |
| 2026-05-05 01:28 | 41.70643 | -70.84372 | 21957 ft | 435 kts | 214° |
| 2026-05-05 01:28 | 41.68015 | -70.86377 | 21955 ft | 435 kts | 213° |
| 2026-05-05 01:28 | 41.65372 | -70.88363 | 21961 ft | 435 kts | 213° |
| 2026-05-05 01:28 | 41.62722 | -70.90341 | 21957 ft | 436 kts | 213° |
| 2026-05-05 01:29 | 41.60074 | -70.92315 | 21943 ft | 436 kts | 213° |
| 2026-05-05 01:29 | 41.57448 | -70.94339 | 21949 ft | 434 kts | 217° |
| 2026-05-05 01:29 | 41.55036 | -70.96710 | 21962 ft | 430 kts | 224° |
| 2026-05-05 01:29 | 41.52831 | -70.99391 | 21961 ft | 427 kts | 229° |
| 2026-05-05 01:30 | 41.50856 | -71.02341 | 21957 ft | 424 kts | 234° |
| 2026-05-05 01:30 | 41.48994 | -71.05398 | 21960 ft | 424 kts | 234° |
| 2026-05-05 01:30 | 41.47139 | -71.08459 | 21958 ft | 424 kts | 234° |
| 2026-05-05 01:30 | 41.45283 | -71.11516 | 21956 ft | 425 kts | 234° |
| 2026-05-05 01:31 | 41.43440 | -71.14537 | 21946 ft | 425 kts | 234° |
| 2026-05-05 01:31 | 41.41568 | -71.17589 | 21946 ft | 425 kts | 234° |
| 2026-05-05 01:31 | 41.39694 | -71.20634 | 21954 ft | 425 kts | 234° |
| 2026-05-05 01:31 | 41.37814 | -71.23681 | 21956 ft | 426 kts | 234° |
| 2026-05-05 01:32 | 41.35930 | -71.26730 | 21960 ft | 426 kts | 234° |
| 2026-05-05 01:32 | 41.34048 | -71.29772 | 21958 ft | 426 kts | 234° |
| 2026-05-05 01:32 | 41.32163 | -71.32816 | 21959 ft | 426 kts | 234° |
| 2026-05-05 01:32 | 41.30275 | -71.35862 | 21965 ft | 426 kts | 234° |
| 2026-05-05 01:33 | 41.28383 | -71.38910 | 21964 ft | 426 kts | 234° |
| 2026-05-05 01:33 | 41.26494 | -71.41952 | 21968 ft | 426 kts | 234° |
| 2026-05-05 01:33 | 41.24609 | -71.44985 | 21970 ft | 426 kts | 234° |
| 2026-05-05 01:33 | 41.22749 | -71.47976 | 21972 ft | 426 kts | 234° |
| 2026-05-05 01:34 | 41.20865 | -71.51002 | 21971 ft | 426 kts | 234° |
| 2026-05-05 01:34 | 41.18976 | -71.54030 | 21972 ft | 425 kts | 234° |
| 2026-05-05 01:34 | 41.17254 | -71.57164 | 21962 ft | 417 kts | 245° |
| 2026-05-05 01:34 | 41.16243 | -71.60732 | 21969 ft | 412 kts | 261° |
| 2026-05-05 01:35 | 41.15804 | -71.64474 | 21984 ft | 413 kts | 264° |
| 2026-05-05 01:35 | 41.15379 | -71.68270 | 21977 ft | 417 kts | 263° |
| 2026-05-05 01:35 | 41.14936 | -71.72063 | 21969 ft | 415 kts | 263° |
| 2026-05-05 01:35 | 41.14480 | -71.75840 | 21954 ft | 414 kts | 263° |
| 2026-05-05 01:36 | 41.14017 | -71.79611 | 21968 ft | 414 kts | 263° |
| 2026-05-05 01:36 | 41.13549 | -71.83372 | 21974 ft | 413 kts | 263° |
| 2026-05-05 01:36 | 41.13078 | -71.87131 | 21981 ft | 413 kts | 263° |
| 2026-05-05 01:36 | 41.12605 | -71.90894 | 21983 ft | 414 kts | 262° |
| 2026-05-05 01:37 | 41.12131 | -71.94659 | 21980 ft | 412 kts | 262° |
| 2026-05-05 01:37 | 41.11662 | -71.98365 | 21965 ft | 402 kts | 262° |
| 2026-05-05 01:37 | 41.11217 | -72.01878 | 21822 ft | 392 kts | 262° |
| 2026-05-05 01:37 | 41.10769 | -72.05413 | 21450 ft | 386 kts | 262° |
| 2026-05-05 01:38 | 41.10326 | -72.08899 | 21003 ft | 381 kts | 262° |
| 2026-05-05 01:38 | 41.09875 | -72.12346 | 20496 ft | 378 kts | 260° |
| 2026-05-05 01:38 | 41.09212 | -72.15703 | 20011 ft | 376 kts | 255° |
| 2026-05-05 01:38 | 41.08391 | -72.18994 | 19514 ft | 374 kts | 253° |
| 2026-05-05 01:39 | 41.07546 | -72.22193 | 19040 ft | 371 kts | 252° |
| 2026-05-05 01:39 | 41.06696 | -72.25413 | 18553 ft | 369 kts | 253° |
| 2026-05-05 01:39 | 41.05863 | -72.28625 | 18037 ft | 367 kts | 253° |
| 2026-05-05 01:39 | 41.05046 | -72.31825 | 17520 ft | 364 kts | 253° |
| 2026-05-05 01:40 | 41.04247 | -72.34988 | 17039 ft | 360 kts | 253° |
| 2026-05-05 01:40 | 41.03460 | -72.38125 | 16553 ft | 358 kts | 253° |
| 2026-05-05 01:40 | 41.02679 | -72.41246 | 16074 ft | 355 kts | 253° |
| 2026-05-05 01:40 | 41.01904 | -72.44345 | 15599 ft | 353 kts | 253° |
| 2026-05-05 01:41 | 41.01135 | -72.47420 | 15143 ft | 350 kts | 253° |
| 2026-05-05 01:41 | 41.00371 | -72.50471 | 14679 ft | 348 kts | 253° |
| 2026-05-05 01:41 | 40.99611 | -72.53504 | 14215 ft | 346 kts | 253° |
| 2026-05-05 01:41 | 40.98854 | -72.56521 | 13756 ft | 344 kts | 253° |
| 2026-05-05 01:42 | 40.98100 | -72.59526 | 13241 ft | 343 kts | 253° |
| 2026-05-05 01:42 | 40.97351 | -72.62504 | 12831 ft | 338 kts | 253° |
| 2026-05-05 01:42 | 40.96621 | -72.65396 | 12712 ft | 326 kts | 253° |
| 2026-05-05 01:42 | 40.95928 | -72.68144 | 12556 ft | 309 kts | 253° |
| 2026-05-05 01:43 | 40.95273 | -72.70738 | 12423 ft | 288 kts | 253° |
| 2026-05-05 01:43 | 40.94651 | -72.73200 | 12306 ft | 277 kts | 253° |
| 2026-05-05 01:43 | 40.94050 | -72.75571 | 12193 ft | 266 kts | 254° |
| 2026-05-05 01:43 | 40.93467 | -72.77876 | 12103 ft | 266 kts | 253° |
| 2026-05-05 01:44 | 40.92591 | -72.80090 | 12026 ft | 282 kts | 232° |
| 2026-05-05 01:44 | 40.91082 | -72.81808 | 12031 ft | 291 kts | 220° |
| 2026-05-05 01:44 | 40.89431 | -72.83379 | 12017 ft | 293 kts | 219° |
| 2026-05-05 01:44 | 40.87771 | -72.84943 | 12015 ft | 293 kts | 219° |
| 2026-05-05 01:45 | 40.86241 | -72.86654 | 11952 ft | 284 kts | 237° |
| 2026-05-05 01:45 | 40.85525 | -72.89016 | 11710 ft | 277 kts | 264° |
| 2026-05-05 01:45 | 40.85355 | -72.91571 | 11152 ft | 284 kts | 266° |
| 2026-05-05 01:45 | 40.85167 | -72.94152 | 10384 ft | 280 kts | 265° |
| 2026-05-05 01:46 | 40.84975 | -72.96680 | 9662 ft | 273 kts | 266° |
| 2026-05-05 01:46 | 40.84789 | -72.99135 | 9023 ft | 265 kts | 265° |
| 2026-05-05 01:46 | 40.84611 | -73.01487 | 8387 ft | 264 kts | 265° |
| 2026-05-05 01:46 | 40.84429 | -73.03889 | 7763 ft | 262 kts | 264° |
| 2026-05-05 01:47 | 40.84248 | -73.06270 | 7145 ft | 260 kts | 264° |
| 2026-05-05 01:47 | 40.84068 | -73.08639 | 6540 ft | 257 kts | 264° |
| 2026-05-05 01:47 | 40.83891 | -73.10951 | 5939 ft | 255 kts | 263° |
| 2026-05-05 01:47 | 40.83715 | -73.13244 | 5444 ft | 246 kts | 262° |
| 2026-05-05 01:48 | 40.83543 | -73.15478 | 5079 ft | 245 kts | 262° |
| 2026-05-05 01:48 | 40.83370 | -73.17719 | 5003 ft | 247 kts | 262° |
| 2026-05-05 01:48 | 40.83192 | -73.19999 | 4993 ft | 251 kts | 262° |
| 2026-05-05 01:48 | 40.83014 | -73.22286 | 4984 ft | 250 kts | 262° |
| 2026-05-05 01:49 | 40.82836 | -73.24562 | 4973 ft | 248 kts | 262° |
| 2026-05-05 01:49 | 40.82659 | -73.26822 | 4966 ft | 247 kts | 262° |
| 2026-05-05 01:49 | 40.82483 | -73.29074 | 4976 ft | 246 kts | 262° |
| 2026-05-05 01:49 | 40.82366 | -73.30564 | 4989 ft | 246 kts | 262° |
| 2026-05-05 01:50 | 40.82189 | -73.32812 | 4978 ft | 247 kts | 262° |
| 2026-05-05 01:50 | 40.82007 | -73.35102 | 4708 ft | 254 kts | 262° |
| 2026-05-05 01:50 | 40.81825 | -73.37409 | 4213 ft | 248 kts | 262° |
| 2026-05-05 01:50 | 40.81648 | -73.39650 | 3775 ft | 243 kts | 261° |
| 2026-05-05 01:51 | 40.81471 | -73.41878 | 3318 ft | 244 kts | 261° |
| 2026-05-05 01:51 | 40.81294 | -73.44096 | 3063 ft | 241 kts | 261° |
| 2026-05-05 01:51 | 40.81116 | -73.46311 | 2989 ft | 243 kts | 261° |
| 2026-05-05 01:51 | 40.80940 | -73.48516 | 2976 ft | 241 kts | 261° |
| 2026-05-05 01:52 | 40.80764 | -73.50709 | 2975 ft | 240 kts | 261° |
| 2026-05-05 01:52 | 40.80590 | -73.52879 | 2915 ft | 235 kts | 261° |
| 2026-05-05 01:52 | 40.80417 | -73.55018 | 2673 ft | 232 kts | 261° |
| 2026-05-05 01:52 | 40.80249 | -73.57107 | 2407 ft | 226 kts | 261° |
| 2026-05-05 01:53 | 40.80083 | -73.59158 | 2140 ft | 225 kts | 260° |
| 2026-05-05 01:53 | 40.79918 | -73.61201 | 2047 ft | 222 kts | 260° |
| 2026-05-05 01:53 | 40.79583 | -73.63170 | 1971 ft | 219 kts | 238° |
| 2026-05-05 01:53 | 40.78500 | -73.64540 | 1959 ft | 216 kts | 213° |
| 2026-05-05 01:54 | 40.77277 | -73.65491 | 1981 ft | 196 kts | 212° |
| 2026-05-05 01:54 | 40.76176 | -73.66344 | 1969 ft | 177 kts | 211° |
| 2026-05-05 01:54 | 40.75146 | -73.67150 | 2000 ft | 170 kts | 211° |
| 2026-05-05 01:54 | 40.74155 | -73.67927 | 1999 ft | 163 kts | 212° |
| 2026-05-05 01:55 | 40.73191 | -73.68685 | 1997 ft | 162 kts | 212° |
| 2026-05-05 01:55 | 40.72215 | -73.69453 | 1768 ft | 162 kts | 211° |
| 2026-05-05 01:55 | 40.71258 | -73.70204 | 1560 ft | 160 kts | 211° |
| 2026-05-05 01:55 | 40.70301 | -73.70956 | 1349 ft | 156 kts | 211° |
| 2026-05-05 01:56 | 40.69410 | -73.71655 | 1150 ft | 144 kts | 211° |
| 2026-05-05 01:56 | 40.68583 | -73.72304 | 981 ft | 133 kts | 211° |
| 2026-05-05 01:56 | 40.67802 | -73.72919 | 796 ft | 131 kts | 209° |
| 2026-05-05 01:56 | 40.67005 | -73.73540 | 637 ft | 138 kts | 209° |
| 2026-05-05 01:57 | 40.66188 | -73.74187 | 436 ft | 136 kts | 210° |
| 2026-05-05 01:57 | 40.65332 | -73.74552 | 511 ft | 129 kts | 180° |
| 2026-05-05 01:57 | 40.64467 | -73.74638 | 1356 ft | 127 kts | 192° |
| 2026-05-05 01:57 | 40.63563 | -73.74795 | 1622 ft | 140 kts | 193° |
| 2026-05-05 01:58 | 40.62631 | -73.75341 | 1092 ft | 151 kts | 207° |
| 2026-05-05 01:58 | 40.61661 | -73.75654 | 775 ft | 133 kts | 181° |
| 2026-05-05 01:58 | 40.60764 | -73.75180 | 602 ft | 157 kts | 140° |
| 2026-05-05 01:58 | 40.60249 | -73.73858 | 726 ft | 170 kts | 115° |
| 2026-05-05 01:59 | 40.59803 | -73.72274 | 1031 ft | 202 kts | 118° |
| 2026-05-05 01:59 | 40.59283 | -73.70481 | 1432 ft | 218 kts | 117° |
| 2026-05-05 01:59 | 40.58738 | -73.68596 | 1746 ft | 222 kts | 117° |
| 2026-05-05 01:59 | 40.58298 | -73.66628 | 2056 ft | 231 kts | 99° |
| 2026-05-05 02:00 | 40.58623 | -73.64529 | 2388 ft | 241 kts | 62° |
| 2026-05-05 02:00 | 40.59634 | -73.62780 | 2899 ft | 242 kts | 43° |
| 2026-05-05 02:00 | 40.61017 | -73.61448 | 3004 ft | 250 kts | 29° |
| 2026-05-05 02:00 | 40.62506 | -73.60278 | 3015 ft | 247 kts | 27° |
| 2026-05-05 02:01 | 40.63985 | -73.59145 | 2959 ft | 245 kts | 27° |
| 2026-05-05 02:01 | 40.65453 | -73.58030 | 2970 ft | 242 kts | 27° |
| 2026-05-05 02:01 | 40.66909 | -73.56929 | 3010 ft | 241 kts | 27° |
| 2026-05-05 02:01 | 40.68360 | -73.55835 | 3026 ft | 244 kts | 27° |
| 2026-05-05 02:02 | 40.69834 | -73.54725 | 3071 ft | 244 kts | 27° |
| 2026-05-05 02:02 | 40.71320 | -73.53609 | 3046 ft | 248 kts | 27° |
| 2026-05-05 02:02 | 40.72818 | -73.52479 | 3024 ft | 247 kts | 27° |
| 2026-05-05 02:02 | 40.74299 | -73.51360 | 3016 ft | 243 kts | 27° |
| 2026-05-05 02:03 | 40.75759 | -73.50251 | 3017 ft | 242 kts | 27° |
| 2026-05-05 02:03 | 40.77226 | -73.49142 | 3025 ft | 243 kts | 27° |
| 2026-05-05 02:03 | 40.78695 | -73.48022 | 2985 ft | 245 kts | 27° |
| 2026-05-05 02:03 | 40.80178 | -73.46902 | 2999 ft | 246 kts | 27° |
| 2026-05-05 02:04 | 40.81719 | -73.45978 | 2964 ft | 240 kts | 6° |
| 2026-05-05 02:04 | 40.83316 | -73.46126 | 2978 ft | 225 kts | 331° |
| 2026-05-05 02:04 | 40.84497 | -73.47314 | 2992 ft | 209 kts | 297° |
| 2026-05-05 02:04 | 40.84911 | -73.49046 | 2982 ft | 198 kts | 265° |
| 2026-05-05 02:05 | 40.84785 | -73.50848 | 2982 ft | 198 kts | 258° |
| 2026-05-05 02:05 | 40.84573 | -73.52681 | 2990 ft | 201 kts | 257° |
| 2026-05-05 02:05 | 40.84351 | -73.54490 | 2981 ft | 202 kts | 257° |
| 2026-05-05 02:05 | 40.84107 | -73.56309 | 2975 ft | 198 kts | 250° |
| 2026-05-05 02:06 | 40.83382 | -73.57781 | 2984 ft | 191 kts | 223° |
| 2026-05-05 02:06 | 40.82334 | -73.58869 | 2983 ft | 193 kts | 218° |
| 2026-05-05 02:06 | 40.81236 | -73.59903 | 2983 ft | 194 kts | 217° |
| 2026-05-05 02:06 | 40.80129 | -73.60938 | 2961 ft | 196 kts | 217° |
| 2026-05-05 02:07 | 40.79013 | -73.61984 | 2987 ft | 197 kts | 218° |
| 2026-05-05 02:07 | 40.77924 | -73.62992 | 2984 ft | 187 kts | 217° |
| 2026-05-05 02:07 | 40.76902 | -73.63939 | 2907 ft | 175 kts | 217° |
| 2026-05-05 02:07 | 40.75918 | -73.64847 | 2597 ft | 171 kts | 217° |
| 2026-05-05 02:08 | 40.74962 | -73.65740 | 2199 ft | 167 kts | 217° |
| 2026-05-05 02:08 | 40.74059 | -73.66631 | 2045 ft | 165 kts | 217° |
| 2026-05-05 02:08 | 40.73125 | -73.67568 | 2010 ft | 165 kts | 217° |
| 2026-05-05 02:08 | 40.72229 | -73.68459 | 2007 ft | 161 kts | 217° |
| 2026-05-05 02:09 | 40.71349 | -73.69340 | 2002 ft | 158 kts | 217° |
| 2026-05-05 02:09 | 40.70465 | -73.70227 | 2008 ft | 161 kts | 217° |
| 2026-05-05 02:09 | 40.69566 | -73.71124 | 2015 ft | 163 kts | 217° |
| 2026-05-05 02:09 | 40.68642 | -73.72004 | 2003 ft | 163 kts | 208° |
| 2026-05-05 02:10 | 40.67517 | -73.72139 | 2004 ft | 180 kts | 169° |
| 2026-05-05 02:10 | 40.66376 | -73.71081 | 1987 ft | 216 kts | 133° |
| 2026-05-05 02:10 | 40.65841 | -73.69183 | 2006 ft | 233 kts | 98° |
| 2026-05-05 02:10 | 40.66060 | -73.67038 | 2023 ft | 240 kts | 80° |
| 2026-05-05 02:11 | 40.66516 | -73.64892 | 2000 ft | 245 kts | 77° |
| 2026-05-05 02:11 | 40.66987 | -73.62745 | 1986 ft | 242 kts | 77° |
| 2026-05-05 02:11 | 40.67444 | -73.60631 | 1998 ft | 239 kts | 77° |
| 2026-05-05 02:11 | 40.67909 | -73.58513 | 2027 ft | 242 kts | 77° |
| 2026-05-05 02:12 | 40.68382 | -73.56368 | 2028 ft | 245 kts | 77° |
| 2026-05-05 02:12 | 40.69934 | -73.52492 | 1985 ft | 244 kts | 35° |
| 2026-05-05 02:12 | 40.71350 | -73.51302 | 2263 ft | 238 kts | 28° |
| 2026-05-05 02:13 | 40.72790 | -73.50211 | 2727 ft | 240 kts | 27° |
| 2026-05-05 02:13 | 40.74246 | -73.49100 | 3048 ft | 244 kts | 27° |
| 2026-05-05 02:13 | 40.75734 | -73.47972 | 3020 ft | 248 kts | 27° |
| 2026-05-05 02:13 | 40.77203 | -73.46854 | 3024 ft | 246 kts | 27° |
| 2026-05-05 02:14 | 40.78680 | -73.45732 | 2993 ft | 243 kts | 27° |
| 2026-05-05 02:14 | 40.80240 | -73.44968 | 2974 ft | 237 kts | 359° |
| 2026-05-05 02:14 | 40.81796 | -73.45344 | 2993 ft | 224 kts | 324° |
| 2026-05-05 02:14 | 40.82866 | -73.46697 | 2984 ft | 209 kts | 290° |
| 2026-05-05 02:15 | 40.83205 | -73.48494 | 3004 ft | 201 kts | 270° |
| 2026-05-05 02:15 | 40.83284 | -73.50351 | 2988 ft | 205 kts | 268° |
| 2026-05-05 02:15 | 40.83335 | -73.52228 | 2908 ft | 203 kts | 268° |
| 2026-05-05 02:15 | 40.83385 | -73.54083 | 2554 ft | 200 kts | 267° |
| 2026-05-05 02:16 | 40.83392 | -73.55857 | 2121 ft | 182 kts | 255° |
| 2026-05-05 02:16 | 40.82953 | -73.57286 | 1992 ft | 160 kts | 238° |
| 2026-05-05 02:16 | 40.82415 | -73.58553 | 1994 ft | 158 kts | 237° |
| 2026-05-05 02:16 | 40.81859 | -73.59833 | 2014 ft | 161 kts | 238° |
| 2026-05-05 02:17 | 40.81300 | -73.61085 | 1978 ft | 159 kts | 237° |
| 2026-05-05 02:17 | 40.80688 | -73.62286 | 1956 ft | 157 kts | 224° |
| 2026-05-05 02:17 | 40.79814 | -73.63165 | 1978 ft | 162 kts | 219° |
| 2026-05-05 02:17 | 40.78904 | -73.64068 | 1980 ft | 164 kts | 217° |
| 2026-05-05 02:18 | 40.77967 | -73.64893 | 1983 ft | 160 kts | 214° |
| 2026-05-05 02:18 | 40.77031 | -73.65654 | 2002 ft | 157 kts | 212° |
| 2026-05-05 02:18 | 40.76088 | -73.66405 | 2024 ft | 160 kts | 212° |
| 2026-05-05 02:18 | 40.75129 | -73.67161 | 1997 ft | 159 kts | 212° |
| 2026-05-05 02:19 | 40.74186 | -73.67903 | 2005 ft | 156 kts | 211° |
| 2026-05-05 02:19 | 40.73244 | -73.68644 | 2013 ft | 161 kts | 212° |
| 2026-05-05 02:19 | 40.72270 | -73.69409 | 2015 ft | 163 kts | 212° |
| 2026-05-05 02:19 | 40.71309 | -73.70164 | 2004 ft | 159 kts | 212° |
| 2026-05-05 02:20 | 40.70345 | -73.70925 | 1793 ft | 164 kts | 212° |
| 2026-05-05 02:20 | 40.69418 | -73.71691 | 1441 ft | 150 kts | 212° |
| 2026-05-05 02:20 | 40.68547 | -73.72395 | 932 ft | 142 kts | 210° |
| 2026-05-05 02:20 | 40.67718 | -73.73007 | 646 ft | 135 kts | 209° |
| 2026-05-05 02:21 | 40.66914 | -73.73630 | 572 ft | 137 kts | 206° |
| 2026-05-05 02:21 | 40.66091 | -73.74268 | 387 ft | 139 kts | 207° |
| 2026-05-05 02:21 | 40.65269 | -73.74923 | 204 ft | 134 kts | 209° |
| 2026-05-05 02:21 | 40.64451 | -73.75545 | 60 ft | 138 kts | 208° |
| 2026-05-05 02:22 | 40.63734 | -73.76103 | 30 ft | 69 kts | 211° |
| 2026-05-05 02:22 | 40.63481 | -73.76300 | 29 ft | 20 kts | 211° |
| 2026-05-05 02:22 | 40.63369 | -73.76403 | 26 ft | 20 kts | 221° |
| 2026-05-05 02:22 | 40.63280 | -73.76539 | 29 ft | 20 kts | 239° |
| 2026-05-05 02:23 | 40.63243 | -73.76710 | 27 ft | 20 kts | 276° |
| 2026-05-05 02:23 | 40.63307 | -73.76868 | 28 ft | 20 kts | 300° |